Rachel, Nevada Weather observations

Data are for observation ending at time listed.
 Day   Time    Ave.   Ave.  Ave.  Vector   Max.   Stn.    Total    Solar   Ave.  
  of    of     Air    Rel.  Wind   Wind    Wind   Baro.  Precip.   Rad.    Soil  
Year   Day     Temp.  Hum.  Speed  Dir.    Gust   Pres.                    Temp. 
2016   (PST)    F      %     mph   deg.    mph     mb.     in.     W/m2     F   
------------------------------------------------------------------------------
 123   12:30   62.9    31   10.4   171     14.1   855.2    0.00     804    62.5
 123   12:40   64.1    30   11.2   184     15.7   855.2    0.00     864    63.0
 123   12:50   64.4    28    5.8   197     12.8   855.4    0.00     794    63.2
 123   13:00   63.5    29    3.8    90      7.7   855.5    0.00     304    63.2
 123   13:10   63.6    29    8.5    52     16.1   855.4    0.00     211    62.9
 123   13:20   62.6    28    9.1    66     15.0   855.2    0.00     302    62.5
 123   13:30   64.2    27    5.6   107     13.5   855.1    0.00     693    62.4
 123   13:40   64.3    26    5.6   106      8.3   855.1    0.00     502    62.6
 123   13:50   64.6    26    5.1    46      9.9   855.1    0.00     635    62.6
 123   14:00   65.5    25    4.3    19     13.2   855.0    0.00     577    62.6
 123   14:10   66.1    24    7.7    22     12.6   855.0    0.00     684    62.8
 123   14:20   65.6    24    6.0    12     11.2   855.1    0.00     681    62.9
 123   14:30   66.0    28   13.2    82     22.7   855.0    0.00     582    63.1
 123   14:40   65.0    31   17.7   124     24.0   855.0    0.00     506    63.1
 123   14:50   64.1    32   13.8   139     18.3   854.9    0.00     394    63.1
 123   15:00   62.8    33   14.6   150     19.3   854.7    0.00      68    62.7
 123   15:10   62.6    33   14.9   156     20.0   854.4    0.00     235    62.3
 123   15:20   64.0    32   13.1   154     18.0   854.1    0.00     467    62.3
 123   15:30   64.2    31   10.6   176     16.7   854.2    0.00     439    62.5
 123   15:40   64.1    30   10.0   146     14.5   854.2    0.00     417    62.5
 123   15:50   64.1    29    4.8   162      9.3   854.3    0.00     397    62.4
 123   16:00   65.0    28    5.2   204     10.2   854.4    0.00     371    62.4
 123   16:10   64.7    28    3.9   171      6.8   854.5    0.00     310    62.3
 123   16:20   64.2    30    9.5    40     15.7   854.7    0.00     154    62.2
 123   16:30   61.9    35   14.5    25     21.1   854.6    0.00      46    61.8
 123   16:40   59.9    41   17.6    11     23.2   854.5    0.00      40    61.3
 123   16:50   59.4    42   13.5     8     18.6   854.3    0.00      43    60.8
 123   17:00   59.4    41   12.9   337     17.5   854.0    0.00      52    60.6
 123   17:10   60.6    35   10.7   324     15.8   853.8    0.00      60    60.5
 123   17:20   61.5    32    9.8   316     12.6   853.7    0.00     110    60.5
 123   17:30   62.8    29    5.2   316      8.0   853.7    0.00     179    60.6
 123   17:40   63.5    30    4.2    84      9.8   853.9    0.00     155    60.7
 123   17:50   62.2    35    9.1   103     11.7   854.0    0.00     116    60.6
 123   18:00   61.6    36    8.1   102     11.0   854.0    0.00      80    60.4
 123   18:10   61.3    37    6.7    92      8.8   854.0    0.00      50    60.2
 123   18:20   60.8    38    7.1    88      9.2   854.0    0.00      26    60.0
 123   18:30   60.0    41    5.8    84      8.0   854.0    0.00      13    59.8
 123   18:40   58.9    44    3.7    90      5.2   854.0    0.00       5    59.5
 123   18:50   58.5    44    2.8   101      3.5   853.9    0.00       3    59.3
 123   19:00   58.2    46    1.9   117      2.2   854.0    0.00       0    59.1
 123   19:10   57.6    50    2.0   129      2.4   853.8    0.00       0    58.9
 123   19:20   55.1    62    2.9   160      3.9   853.6    0.00       0    58.7
 123   19:30   52.9    68    5.8   185      6.5   853.7    0.00       0    58.4
 123   19:40   52.3    67    5.4   178      6.5   853.8    0.00       0    58.0
 123   19:50   52.1    66    6.0   156      7.0   853.8    0.00       0    57.7
 123   20:00   52.2    64    6.5   150      7.5   853.7    0.00       0    57.4
 123   20:10   52.0    66    6.4   151      7.4   853.8    0.00       0    57.1
 123   20:20   51.2    66    8.3   160      9.6   853.7    0.00       0    56.8
 123   20:30   50.7    66    8.2   160      9.6   853.8    0.00       0    56.5
 123   20:40   50.4    68    3.9    10      7.4   853.9    0.00       0    56.3
 123   20:50   49.1    73    0.5   360      2.9   854.0    0.00       0    56.1
 123   21:00   49.5    72    1.5   245      3.5   854.1    0.00       0    55.9
 123   21:10   49.7    72    2.2   229      3.8   854.1    0.00       0    55.9
 123   21:20   49.0    73    4.6   212      5.6   854.1    0.00       0    55.7
 123   21:30   48.5    73    4.0   219      5.5   854.1    0.00       0    55.5
 123   21:40   48.3    74    4.4   206      5.5   853.9    0.00       0    55.3
 123   21:50   47.9    75    4.3   219      5.3   853.8    0.00       0    55.1
 123   22:00   48.2    74    4.0   235      4.8   853.8    0.00       0    55.0
 123   22:10   47.7    75    3.6   232      4.7   853.8    0.00       0    54.8
 123   22:20   46.7    78    2.7   208      3.6   853.6    0.00       0    54.6
 123   22:30   46.7    77    2.0   226      2.9   853.5    0.00       0    54.5
 123   22:40   46.8    77    2.8   264      3.5   853.6    0.00       0    54.4
 123   22:50   46.5    79    2.9   306      4.2   853.5    0.00       0    54.2
 123   23:00   46.3    78    4.2   316      4.9   853.6    0.00       0    54.0
 123   23:10   45.6    80    3.3   312      4.2   853.5    0.00       0    53.8
 123   23:20   45.2    81    0.6   276      2.0   853.5    0.00       0    53.6
 123   23:30   45.6    79    1.2    96      2.9   853.5    0.00       0    53.3
 123   23:40   44.8    82    2.4   114      3.3   853.4    0.00       0    53.0
 123   23:50   44.6    83    0.9   138      4.0   853.4    0.00       0    52.9
 124    0:00   44.3    83    4.7   127      5.9   853.3    0.00       0    52.8
 124    0:10   44.0    83    4.7   121      6.0   853.4    0.00       0    52.4
 124    0:20   43.8    83    3.8   114      4.4   853.3    0.00       0    52.2
 124    0:30   43.4    84    2.9   120      4.7   853.3    0.00       0    52.0
 124    0:40   42.3    86    1.2   324      2.2   853.3    0.00       0    51.9
 124    0:50   41.5    87    0.8    16      2.3   853.2    0.00       0    51.7
 124    1:00   41.8    88    0.2   167      0.7   853.2    0.00       0    51.6
 124    1:10   41.8    87    0.6   174      1.6   853.2    0.00       0    51.5
 124    1:20   41.6    86    1.8   138      2.6   853.0    0.00       0    51.4
 124    1:30   41.5    86    2.5    76      3.8   852.9    0.00       0    51.2
 124    1:40   41.5    85    3.5    51      4.3   853.0    0.00       0    50.9
 124    1:50   41.1    85    3.7    28      4.2   853.2    0.00       0    50.7
 124    2:00   41.4    85    1.3   356      3.4   853.0    0.00       0    50.6
 124    2:10   41.3    86    0.8   210      1.4   853.1    0.00       0    50.5
 124    2:20   41.0    86    1.3   130      2.0   853.2    0.00       0    50.4
 124    2:30   40.8    87    1.1   156      2.7   853.4    0.00       0    50.3
 124    2:40   40.0    87    2.4   177      3.4   853.4    0.00       0    50.2
 124    2:50   39.3    89    3.1   169      4.3   853.4    0.00       0    50.0
 124    3:00   39.3    90    2.8   156      4.2   853.2    0.00       0    49.8
 124    3:10   39.5    90    3.9   157      4.9   853.1    0.00       0    49.7
 124    3:20   39.5    89    3.1   161      4.5   853.2    0.00       0    49.6
 124    3:30   39.4    89    2.7   157      3.7   853.3    0.00       0    49.5
 124    3:40   39.0    89    2.4   175      3.1   853.3    0.00       0    49.4
 124    3:50   39.0    89    1.0   260      2.3   853.4    0.00       0    49.2
 124    4:00   38.2    89    0.0     0      0.0   853.3    0.00       0    49.1
 124    4:10   38.1    90    1.4   179      2.2   853.4    0.00       0    48.9
 124    4:20   38.5    90    0.9   173      2.1   853.4    0.00       0    48.8
 124    4:30   38.4    89    2.1   132      3.3   853.3    0.00       0    48.7
 124    4:40   38.0    90    1.3   122      2.7   853.4    0.00       0    48.5
 124    4:50   38.4    90    0.4    46      1.6   853.4    0.00       3    48.4
 124    5:00   38.5    90    0.0   114      0.5   853.4    0.00       6    48.3
 124    5:10   39.0    89    0.3     2      1.3   853.6    0.00      21    48.4
 124    5:20   39.5    87    0.5   346      1.7   853.7    0.00      37    48.6
 124    5:30   38.7    87    1.0   311      1.5   853.9    0.00      57    48.7
 124    5:40   40.6    86    0.1    77      1.3   854.1    0.00      80    49.0
 124    5:50   43.6    80    0.5    96      1.5   854.3    0.00     102    49.5
 124    6:00   45.0    78    1.3    81      2.1   854.5    0.00     126    50.2
 124    6:10   45.8    76    0.9    37      1.7   854.9    0.00     151    50.7
 124    6:20   46.8    74    0.6   333      1.5   855.1    0.00     176    51.4
 124    6:30   46.8    74    0.4   323      1.7   855.3    0.00     204    52.1
 124    6:40   49.0    70    0.7   358      2.3   855.4    0.00     230    52.8
 124    6:50   50.5    67    0.4    38      1.2   855.5    0.00     255    53.4
 124    7:00   51.9    63    0.7   335      1.8   855.7    0.00     281    53.6
 124    7:10   51.0    64    1.1   323      2.3   855.8    0.00     307    53.3
 124    7:20   51.3    64    1.4   302      2.6   855.9    0.00     332    53.2
 124    7:30   52.2    60    1.0   262      2.7   856.1    0.00     355    53.7
 124    7:40   53.7    57    1.3   337      3.8   856.1    0.00     380    54.8
 124    7:50   53.0    59    1.2   326      3.7   856.2    0.00     405    55.6
 124    8:00   54.8    56    0.6   214      2.2   856.3    0.00     428    56.5
 124    8:10   56.4    53    1.0   286      2.6   856.4    0.00     450    57.4
 124    8:20   57.4    52    1.1   297      2.5   856.4    0.00     472    58.1
 124    8:30   58.0    51    1.2   349      2.9   856.5    0.00     492    58.8
 124    8:40   59.1    48    1.2    88      3.3   856.5    0.00     512    59.6
 124    8:50   59.5    47    1.9     8      3.2   856.4    0.00     532    60.3
 124    9:00   60.4    44    3.0    41      6.2   856.6    0.00     550    60.9
 124    9:10   60.6    42    3.3    30      6.2   856.5    0.00     567    61.3
 124    9:20   61.5    40    4.5    10      7.0   856.5    0.00     583    61.7
 124    9:30   62.0    38    3.9   351      8.7   856.5    0.00     601    62.1
 124    9:40   65.0    31    2.6   270      7.1   856.5    0.00     616    62.8
 124    9:50   65.6    29    3.4   183      6.8   856.6    0.00     630    63.1
 124   10:00   66.9    28    5.4   146     11.0   856.7    0.00     643    63.1
 124   10:10   65.7    28    6.0   118     12.0   856.7    0.00     513    63.1
 124   10:20   67.1    25   11.5   160     17.5   856.5    0.00     681    63.3
 124   10:30   67.1    23   13.8   166     22.9   856.5    0.00     682    63.9
 124   10:40   67.2    22   15.7   162     21.3   856.4    0.00     685    64.3
 124   10:50   67.0    22   10.9   156     19.9   856.3    0.00     692    64.6
 124   11:00   67.4    21   13.5   159     19.6   856.2    0.00     697    64.8
 124   11:10   68.4    21   10.7   142     18.9   856.1    0.00     701    65.0
 124   11:20   68.8    21   12.3   149     20.0   856.1    0.00     707    65.2
 124   11:30   68.9    20   11.9   173     18.3   856.1    0.00     710    65.3
 124   11:40   68.6    22   12.3   159     17.7   856.1    0.00     710    65.4
 124   11:50   68.8    22   13.4   166     19.2   856.1    0.00     710    65.4
 124   12:00   69.1    21   12.4   173     17.5   856.0    0.00     708    65.4
 124   12:10   68.9    21    8.7   160     20.7   856.0    0.00     707    65.2
 124   12:20   69.0    21   11.1   159     18.3   855.9    0.00     703    65.2

Return to St. George, Utah graphs page.


Western Regional Climate Center,wrcc@dri.edu